TimeEDT,TemperatureF,Dew PointF,Humidity,Sea Level PressureIn,VisibilityMPH,Wind Direction,Wind SpeedMPH,Gust SpeedMPH,PrecipitationIn,Events,Conditions,WindDirDegrees,DateUTC
12:54 AM,72.0,70.0,93,30.18,-9999.0,Calm,Calm,-,N/A,,Unknown,0,2013-07-17 04:54:00
1:54 AM,71.1,69.1,93,30.18,-9999.0,Calm,Calm,-,N/A,,Unknown,0,2013-07-17 05:54:00
2:54 AM,71.1,69.1,93,30.17,-9999.0,Calm,Calm,-,N/A,,Unknown,0,2013-07-17 06:54:00
3:54 AM,70.0,68.0,93,30.17,-9999.0,Calm,Calm,-,N/A,,Unknown,0,2013-07-17 07:54:00
4:54 AM,69.1,68.0,96,30.19,-9999.0,Calm,Calm,-,N/A,,Unknown,0,2013-07-17 08:54:00
5:54 AM,69.1,66.9,93,30.20,-9999.0,Calm,Calm,-,N/A,,Unknown,0,2013-07-17 09:54:00
6:54 AM,70.0,69.1,97,30.21,-9999.0,Calm,Calm,-,N/A,,Unknown,0,2013-07-17 10:54:00
7:54 AM,75.0,71.1,87,30.21,-9999.0,Calm,Calm,-,N/A,,Unknown,0,2013-07-17 11:54:00
8:54 AM,80.1,69.1,69,30.22,-9999.0,Variable,3.5,-,N/A,,Unknown,0,2013-07-17 12:54:00
9:54 AM,84.9,70.0,61,30.21,-9999.0,Variable,3.5,-,N/A,,Unknown,0,2013-07-17 13:54:00
10:54 AM,86.0,68.0,55,30.20,-9999.0,NE,4.6,-,N/A,,Unknown,50,2013-07-17 14:54:00
11:54 AM,89.1,69.1,52,30.19,-9999.0,NE,3.5,-,N/A,,Unknown,50,2013-07-17 15:54:00
12:54 PM,91.0,69.1,48,30.17,-9999.0,NNE,3.5,-,N/A,,Unknown,20,2013-07-17 16:54:00
1:54 PM,93.9,69.1,44,30.15,-9999.0,Calm,Calm,-,N/A,,Unknown,0,2013-07-17 17:54:00
2:54 PM,93.0,66.9,42,30.14,-9999.0,Variable,3.5,-,N/A,,Unknown,0,2013-07-17 18:54:00
3:54 PM,93.0,66.0,41,30.11,-9999.0,SW,4.6,-,N/A,,Unknown,220,2013-07-17 19:54:00
4:54 PM,91.9,66.0,42,30.10,-9999.0,Calm,Calm,-,N/A,,Unknown,0,2013-07-17 20:54:00
5:54 PM,91.0,68.0,47,30.09,-9999.0,SW,4.6,-,N/A,,Unknown,230,2013-07-17 21:54:00
6:54 PM,89.1,70.0,53,30.08,-9999.0,Calm,Calm,-,N/A,,Unknown,0,2013-07-17 22:54:00
7:54 PM,84.0,72.0,67,30.07,-9999.0,Calm,Calm,-,N/A,,Unknown,0,2013-07-17 23:54:00
8:54 PM,79.0,73.9,84,30.07,-9999.0,Calm,Calm,-,N/A,,Unknown,0,2013-07-18 00:54:00
9:54 PM,77.0,73.9,90,30.09,-9999.0,Calm,Calm,-,N/A,,Unknown,0,2013-07-18 01:54:00
10:54 PM,75.9,73.0,91,30.08,-9999.0,Calm,Calm,-,N/A,,Unknown,0,2013-07-18 02:54:00
11:54 PM,75.0,72.0,90,30.07,-9999.0,Calm,Calm,-,N/A,,Unknown,0,2013-07-18 03:54:00